createdAt,value
2017-11-07T00:01:39.595Z,5.40
2017-11-07T00:04:08.484Z,5.30
2017-11-07T00:06:36.673Z,5.30
2017-11-07T00:09:05.562Z,4.90
2017-11-07T00:11:34.465Z,4.90
2017-11-07T00:14:02.590Z,4.80
2017-11-07T00:16:30.727Z,5.10
2017-11-07T00:18:58.842Z,5.00
2017-11-07T00:21:26.978Z,4.90
2017-11-07T00:23:55.091Z,4.80
2017-11-07T00:26:23.233Z,4.90
2017-11-07T00:28:51.370Z,5.00
2017-11-07T00:31:20.276Z,5.00
2017-11-07T00:33:48.392Z,5.00
2017-11-07T00:36:16.536Z,4.90
2017-11-07T00:38:44.660Z,4.70
2017-11-07T00:41:12.792Z,4.60
2017-11-07T00:43:40.907Z,4.60
2017-11-07T00:46:09.051Z,4.70
2017-11-07T00:48:37.153Z,4.90
2017-11-07T00:51:06.066Z,4.80
2017-11-07T00:53:34.183Z,4.80
2017-11-07T00:56:02.326Z,4.70
2017-11-07T00:58:30.455Z,4.50
2017-11-07T01:00:58.578Z,4.60
2017-11-07T01:03:26.700Z,4.60
2017-11-07T01:05:54.822Z,4.60
2017-11-07T01:08:22.955Z,4.60
2017-11-07T01:10:51.086Z,4.60
2017-11-07T01:13:19.234Z,4.50
2017-11-07T01:15:47.345Z,4.50
2017-11-07T01:18:15.479Z,4.50
2017-11-07T01:20:43.590Z,4.50
2017-11-07T01:23:11.726Z,4.40
2017-11-07T01:25:39.836Z,4.30
2017-11-07T01:28:07.976Z,4.30
2017-11-07T01:30:36.098Z,4.30
2017-11-07T01:33:04.237Z,4.30
2017-11-07T01:35:32.346Z,4.40
2017-11-07T01:38:00.486Z,4.40
2017-11-07T01:40:28.602Z,4.50
2017-11-07T01:42:56.757Z,4.30
2017-11-07T01:45:24.867Z,4.40
2017-11-07T01:47:53.011Z,4.40
2017-11-07T01:50:21.133Z,4.20
2017-11-07T01:52:49.274Z,4.20
2017-11-07T01:55:18.148Z,4.40
2017-11-07T01:57:46.272Z,4.50
2017-11-07T02:00:14.411Z,4.30
2017-11-07T02:02:43.325Z,4.10
2017-11-07T02:05:11.446Z,4.10
2017-11-07T02:07:39.588Z,4.00
2017-11-07T02:10:07.702Z,3.90
2017-11-07T02:12:35.833Z,3.90
2017-11-07T02:15:03.938Z,3.80
2017-11-07T02:17:32.090Z,3.80
2017-11-07T02:20:00.222Z,3.90
2017-11-07T02:22:29.100Z,3.70
2017-11-07T02:24:58.015Z,3.80
2017-11-07T02:27:26.134Z,3.80
2017-11-07T02:29:54.260Z,3.90
2017-11-07T02:32:22.374Z,4.00
2017-11-07T02:34:50.511Z,3.90
2017-11-07T02:37:18.630Z,4.10
2017-11-07T02:39:46.770Z,4.10
2017-11-07T02:42:14.897Z,4.20
2017-11-07T02:44:43.029Z,4.30
2017-11-07T02:47:11.162Z,4.30
2017-11-07T02:49:40.064Z,4.40
2017-11-07T02:52:08.208Z,4.40
2017-11-07T02:54:36.346Z,4.40
2017-11-07T02:57:04.460Z,4.50
2017-11-07T02:59:33.344Z,4.60
2017-11-07T03:02:01.460Z,4.60
2017-11-07T03:04:29.596Z,4.60
2017-11-07T03:06:58.494Z,4.60
2017-11-07T03:09:27.395Z,4.80
2017-11-07T03:11:55.510Z,4.80
2017-11-07T03:14:23.641Z,4.80
2017-11-07T03:16:51.756Z,4.80
2017-11-07T03:19:19.902Z,4.60
2017-11-07T03:21:48.022Z,4.60
2017-11-07T03:24:16.164Z,4.60
2017-11-07T03:26:44.287Z,4.60
2017-11-07T03:29:13.199Z,4.50
2017-11-07T03:31:41.322Z,4.40
2017-11-07T03:34:09.426Z,4.40
2017-11-07T03:36:38.346Z,4.50
2017-11-07T03:39:06.477Z,4.40
2017-11-07T03:41:34.621Z,4.30
2017-11-07T03:44:02.774Z,4.20
2017-11-07T03:46:30.915Z,4.20
2017-11-07T03:48:59.798Z,4.20
2017-11-07T03:51:28.678Z,4.30
2017-11-07T03:53:56.805Z,4.30
2017-11-07T03:56:24.947Z,4.40
2017-11-07T03:58:53.823Z,4.10
2017-11-07T04:01:22.741Z,4.10
2017-11-07T04:03:50.859Z,4.00
2017-11-07T04:06:19.004Z,4.00
2017-11-07T04:08:47.117Z,3.90
2017-11-07T04:11:15.312Z,4.00
2017-11-07T04:13:44.212Z,4.10
2017-11-07T04:16:13.131Z,4.20
2017-11-07T04:18:41.246Z,4.10
2017-11-07T04:21:09.409Z,4.20
2017-11-07T04:23:37.558Z,4.20
2017-11-07T04:26:05.709Z,4.30
2017-11-07T04:28:33.822Z,4.40
2017-11-07T04:31:01.943Z,4.50
2017-11-07T04:33:30.071Z,4.40
2017-11-07T04:35:58.227Z,4.30
2017-11-07T04:38:26.345Z,4.20
2017-11-07T04:40:54.476Z,4.10
2017-11-07T04:43:22.585Z,4.10
2017-11-07T04:45:50.730Z,4.10
2017-11-07T04:48:18.858Z,4.20
2017-11-07T04:50:47.760Z,4.30
2017-11-07T04:53:15.884Z,4.30
2017-11-07T04:55:44.037Z,4.40
2017-11-07T04:58:12.148Z,4.30
2017-11-07T05:00:40.289Z,4.10
2017-11-07T05:03:08.447Z,4.00
2017-11-07T05:05:36.566Z,3.90
2017-11-07T05:08:04.711Z,3.90
2017-11-07T05:10:32.838Z,3.80
2017-11-07T05:13:00.980Z,3.70
2017-11-07T05:15:29.084Z,3.70
2017-11-07T05:17:57.215Z,3.80
2017-11-07T05:20:25.337Z,3.80
2017-11-07T05:22:53.497Z,3.80
2017-11-07T05:25:22.390Z,3.80
2017-11-07T05:27:51.295Z,3.80
2017-11-07T05:30:19.409Z,3.80
2017-11-07T05:32:47.573Z,3.80
2017-11-07T05:35:15.797Z,3.80
2017-11-07T05:37:43.968Z,3.70
2017-11-07T05:40:12.853Z,3.60
2017-11-07T05:42:41.002Z,3.60
2017-11-07T05:45:09.117Z,3.60
2017-11-07T05:47:38.017Z,3.60
2017-11-07T05:50:06.141Z,3.50
2017-11-07T05:52:34.298Z,3.50
2017-11-07T05:55:02.400Z,3.40
2017-11-07T05:57:30.546Z,3.50
2017-11-07T05:59:58.667Z,3.50
2017-11-07T06:02:27.581Z,3.70
2017-11-07T06:04:55.678Z,3.70
2017-11-07T06:07:23.941Z,3.70
2017-11-07T06:09:52.081Z,3.70
2017-11-07T06:12:20.984Z,3.80
2017-11-07T06:14:49.106Z,3.70
2017-11-07T06:17:17.239Z,3.80
2017-11-07T06:19:45.350Z,3.90
2017-11-07T06:22:13.526Z,4.00
2017-11-07T06:24:41.645Z,4.00
2017-11-07T06:27:10.521Z,4.20
2017-11-07T06:29:39.424Z,4.30
2017-11-07T06:32:07.540Z,4.30
2017-11-07T06:34:35.667Z,4.40
2017-11-07T06:37:04.540Z,4.50
2017-11-07T06:39:32.684Z,4.50
2017-11-07T06:42:00.786Z,4.60
2017-11-07T06:44:28.930Z,4.60
2017-11-07T06:46:57.038Z,4.60
2017-11-07T06:49:25.946Z,4.70
2017-11-07T06:51:54.050Z,4.70
2017-11-07T06:54:22.190Z,4.70
2017-11-07T06:56:51.083Z,4.90
2017-11-07T06:59:19.983Z,4.90
2017-11-07T07:01:48.082Z,4.90
2017-11-07T07:04:16.223Z,4.90
2017-11-07T07:06:44.334Z,5.00
2017-11-07T07:09:12.469Z,5.00
2017-11-07T07:11:40.597Z,5.00
2017-11-07T07:14:08.747Z,5.10
2017-11-07T07:16:36.879Z,5.10
2017-11-07T07:19:05.845Z,5.10
2017-11-07T07:21:33.950Z,5.10
2017-11-07T07:24:02.106Z,5.10
2017-11-07T07:26:30.994Z,5.10
2017-11-07T07:28:59.913Z,5.20
2017-11-07T07:31:28.028Z,5.10
2017-11-07T07:33:56.135Z,5.30
2017-11-07T07:36:25.046Z,5.40
2017-11-07T07:38:53.153Z,5.30
2017-11-07T07:41:21.284Z,5.40
2017-11-07T07:43:49.408Z,5.30
2017-11-07T07:46:17.540Z,5.30
2017-11-07T07:48:45.647Z,5.40
2017-11-07T07:51:13.804Z,5.30
2017-11-07T07:53:41.931Z,5.30
2017-11-07T07:56:10.834Z,5.30
2017-11-07T07:58:39.700Z,5.50
2017-11-07T08:01:07.847Z,5.40
2017-11-07T08:03:35.962Z,5.40
2017-11-07T08:06:04.908Z,5.40
2017-11-07T08:08:33.023Z,5.30
2017-11-07T08:11:01.924Z,5.60
2017-11-07T08:13:30.822Z,5.60
2017-11-07T08:15:59.006Z,5.60
2017-11-07T08:18:27.117Z,5.50
2017-11-07T08:20:55.241Z,5.30
2017-11-07T08:23:23.378Z,5.30
2017-11-07T08:25:51.537Z,5.40
2017-11-07T08:28:19.645Z,5.60
2017-11-07T08:30:48.540Z,5.70
2017-11-07T08:33:17.430Z,5.90
2017-11-07T08:35:46.326Z,6.00
2017-11-07T08:38:15.193Z,6.00
2017-11-07T08:40:43.308Z,6.00
2017-11-07T08:43:11.441Z,6.00
2017-11-07T08:45:39.584Z,6.00
2017-11-07T08:48:07.701Z,6.10
2017-11-07T08:50:36.605Z,6.00
2017-11-07T08:53:04.733Z,6.00
2017-11-07T08:55:32.864Z,6.00
2017-11-07T08:58:00.985Z,6.10
2017-11-07T09:00:29.096Z,6.10
2017-11-07T09:02:57.294Z,6.10
2017-11-07T09:05:25.422Z,6.20
2017-11-07T09:07:53.565Z,6.40
2017-11-07T09:10:21.708Z,6.60
2017-11-07T09:12:49.844Z,6.60
2017-11-07T09:15:22.898Z,6.60
2017-11-07T09:17:51.024Z,6.80
2017-11-07T09:20:19.136Z,6.90
2017-11-07T09:22:47.286Z,6.90
2017-11-07T09:25:15.389Z,7.10
2017-11-07T09:27:43.526Z,7.30
2017-11-07T09:30:11.641Z,7.50
2017-11-07T09:32:39.774Z,7.60
2017-11-07T09:35:07.895Z,7.60
2017-11-07T09:37:36.054Z,7.50
2017-11-07T09:40:04.170Z,7.40
2017-11-07T09:42:33.080Z,7.20
2017-11-07T09:45:01.208Z,7.20
2017-11-07T09:47:29.327Z,7.00
2017-11-07T09:49:57.437Z,7.00
2017-11-07T09:52:25.569Z,7.00
2017-11-07T09:54:53.691Z,7.00
2017-11-07T09:57:21.816Z,7.00
2017-11-07T09:59:49.934Z,6.90
2017-11-07T10:02:18.082Z,7.00
2017-11-07T10:04:46.193Z,7.00
2017-11-07T10:07:14.332Z,7.10
2017-11-07T10:09:42.447Z,7.30
2017-11-07T10:12:10.572Z,7.50
2017-11-07T10:14:38.674Z,7.60
2017-11-07T10:17:06.796Z,7.60
2017-11-07T10:19:34.899Z,7.70
2017-11-07T10:22:03.005Z,7.70
2017-11-07T10:24:31.145Z,7.80
2017-11-07T10:26:59.269Z,7.90
2017-11-07T10:29:28.166Z,8.10
2017-11-07T10:31:57.078Z,8.00
2017-11-07T10:34:25.225Z,8.00
2017-11-07T10:36:54.097Z,8.10
2017-11-07T10:39:22.251Z,8.10
2017-11-07T10:41:50.385Z,8.20
2017-11-07T10:44:18.518Z,8.20
2017-11-07T10:46:46.633Z,8.20
2017-11-07T10:49:14.777Z,8.20
2017-11-07T10:51:43.648Z,8.10
2017-11-07T10:54:11.773Z,8.10
2017-11-07T10:56:39.882Z,8.10
2017-11-07T10:59:08.013Z,8.30
2017-11-07T11:01:36.133Z,8.50
2017-11-07T11:04:04.278Z,8.60
2017-11-07T11:06:32.392Z,8.60
2017-11-07T11:09:00.523Z,8.70
2017-11-07T11:11:28.639Z,8.80
2017-11-07T11:13:56.780Z,8.80
2017-11-07T11:16:24.889Z,8.80
2017-11-07T11:18:53.026Z,8.80
2017-11-07T11:21:21.148Z,8.80
2017-11-07T11:23:50.036Z,8.80
2017-11-07T11:26:18.928Z,8.80
2017-11-07T11:28:47.834Z,8.80
2017-11-07T11:31:15.962Z,8.80
2017-11-07T11:33:44.088Z,8.80
2017-11-07T11:36:12.203Z,8.80
2017-11-07T11:38:40.354Z,8.60
2017-11-07T11:41:08.464Z,8.50
2017-11-07T11:43:36.589Z,8.60
2017-11-07T11:46:04.758Z,8.40
2017-11-07T11:48:32.884Z,8.50
2017-11-07T11:51:01.154Z,8.40
2017-11-07T11:53:29.267Z,8.40
2017-11-07T11:55:57.423Z,8.40
2017-11-07T11:58:26.354Z,8.80
2017-11-07T12:00:54.514Z,8.80
2017-11-07T12:03:22.630Z,8.50
2017-11-07T12:05:50.774Z,8.50
2017-11-07T12:08:18.897Z,8.70
2017-11-07T12:10:47.025Z,8.60
2017-11-07T12:13:15.143Z,8.50
2017-11-07T12:15:43.272Z,8.60
2017-11-07T12:18:11.397Z,8.60
2017-11-07T12:20:40.301Z,8.80
2017-11-07T12:23:08.425Z,8.70
2017-11-07T12:25:36.586Z,8.80
2017-11-07T12:28:04.727Z,8.70
2017-11-07T12:30:32.846Z,8.70
2017-11-07T12:33:00.992Z,8.70
2017-11-07T12:35:29.120Z,8.80
2017-11-07T12:37:57.257Z,8.80
2017-11-07T12:40:25.380Z,8.90
2017-11-07T12:42:54.277Z,9.10
2017-11-07T12:45:22.402Z,9.10
2017-11-07T12:47:50.546Z,9.00
2017-11-07T12:50:30.336Z,9.00
2017-11-07T12:52:58.480Z,8.90
2017-11-07T12:55:26.605Z,8.80
2017-11-07T12:57:55.509Z,8.70
2017-11-07T13:00:23.636Z,8.70
2017-11-07T13:02:51.784Z,8.70
2017-11-07T13:05:19.927Z,8.70
2017-11-07T13:07:48.077Z,8.70
2017-11-07T13:10:16.967Z,8.70
2017-11-07T13:12:45.109Z,8.70
2017-11-07T13:15:13.237Z,8.70
2017-11-07T13:17:41.380Z,8.70
2017-11-07T13:20:09.503Z,8.70
2017-11-07T13:22:37.646Z,8.70
2017-11-07T13:25:06.530Z,8.70
2017-11-07T13:27:35.447Z,8.80
2017-11-07T13:30:03.555Z,8.80
2017-11-07T13:32:31.710Z,8.90
2017-11-07T13:34:59.813Z,9.00
2017-11-07T13:37:27.968Z,9.10
2017-11-07T13:39:56.088Z,9.20
2017-11-07T13:42:24.984Z,9.10
2017-11-07T13:44:53.878Z,9.00
2017-11-07T13:47:22.762Z,8.90
2017-11-07T13:49:51.643Z,9.00
2017-11-07T13:52:20.553Z,9.10
2017-11-07T13:54:49.435Z,9.10
2017-11-07T13:57:18.339Z,9.10
2017-11-07T13:59:47.312Z,9.00
2017-11-07T14:02:16.326Z,8.90
2017-11-07T14:04:44.440Z,8.90
2017-11-07T14:07:12.606Z,9.00
2017-11-07T14:09:41.112Z,9.00
2017-11-07T14:12:09.425Z,8.90
2017-11-07T14:14:37.582Z,9.00
2017-11-07T14:17:06.481Z,9.00
2017-11-07T14:19:35.361Z,9.10
2017-11-07T14:22:03.498Z,9.10
2017-11-07T14:24:31.621Z,9.10
2017-11-07T14:27:00.522Z,9.10
2017-11-07T14:29:28.664Z,9.10
2017-11-07T14:31:56.798Z,9.10
2017-11-07T14:34:24.913Z,9.10
2017-11-07T14:36:53.062Z,9.10
2017-11-07T14:39:21.178Z,9.10
2017-11-07T14:41:50.076Z,9.00
2017-11-07T14:44:18.213Z,9.00
2017-11-07T14:46:46.335Z,9.10
2017-11-07T14:49:14.475Z,8.90
2017-11-07T14:51:43.354Z,8.80
2017-11-07T14:54:11.580Z,8.80
2017-11-07T14:56:39.704Z,8.80
2017-11-07T14:59:07.846Z,8.80
2017-11-07T15:01:35.957Z,8.80
2017-11-07T15:04:04.880Z,8.70
2017-11-07T15:06:33.002Z,8.70
2017-11-07T15:09:01.131Z,8.70
2017-11-07T15:11:29.279Z,8.80
2017-11-07T15:13:58.189Z,8.80
2017-11-07T15:16:26.300Z,8.80
2017-11-07T15:18:54.450Z,8.80
2017-11-07T15:21:22.573Z,8.90
2017-11-07T15:23:50.715Z,8.90
2017-11-07T15:26:18.831Z,8.90
2017-11-07T15:28:47.737Z,8.80
2017-11-07T15:31:16.629Z,8.70
2017-11-07T15:33:45.537Z,8.60
2017-11-07T15:36:13.646Z,8.60
2017-11-07T15:38:41.785Z,8.60
2017-11-07T15:41:09.908Z,8.60
2017-11-07T15:43:38.043Z,8.70
2017-11-07T15:46:06.156Z,8.70
2017-11-07T15:48:34.313Z,8.70
2017-11-07T15:51:02.417Z,8.60
2017-11-07T15:53:31.308Z,8.70
2017-11-07T15:56:00.251Z,8.90
2017-11-07T15:58:28.382Z,8.90
2017-11-07T16:00:57.301Z,8.90
2017-11-07T16:03:25.412Z,8.90
2017-11-07T16:05:53.539Z,8.80
2017-11-07T16:08:21.670Z,8.70
2017-11-07T16:10:49.798Z,8.80
2017-11-07T16:13:17.931Z,8.70
2017-11-07T16:15:46.081Z,8.70
2017-11-07T16:18:14.232Z,8.80
2017-11-07T16:20:42.386Z,8.80
2017-11-07T16:23:10.517Z,8.70
2017-11-07T16:25:38.674Z,8.70
2017-11-07T16:28:06.784Z,8.70
2017-11-07T16:30:35.697Z,8.60
2017-11-07T16:33:03.829Z,8.60
2017-11-07T16:35:32.748Z,8.50
2017-11-07T16:38:00.874Z,8.50
2017-11-07T16:40:29.065Z,8.50
2017-11-07T16:42:57.185Z,8.50
2017-11-07T16:45:25.318Z,8.70
2017-11-07T16:47:53.445Z,8.70
2017-11-07T16:50:21.580Z,8.80
2017-11-07T16:52:49.694Z,8.80
2017-11-07T16:55:17.828Z,8.60
2017-11-07T16:57:45.953Z,8.70
2017-11-07T17:00:14.097Z,8.70
2017-11-07T17:02:42.210Z,8.60
2017-11-07T17:05:10.365Z,8.60
2017-11-07T17:07:38.478Z,8.60
2017-11-07T17:10:07.386Z,8.60
2017-11-07T17:12:35.514Z,8.60
2017-11-07T17:15:03.665Z,8.60
2017-11-07T17:17:31.784Z,8.60
2017-11-07T17:20:00.737Z,8.60
2017-11-07T17:22:29.676Z,8.60
2017-11-07T17:24:58.544Z,8.60
2017-11-07T17:27:26.685Z,8.60
2017-11-07T17:29:54.796Z,8.70
2017-11-07T17:32:22.933Z,8.70
2017-11-07T17:34:51.191Z,8.60
2017-11-07T17:37:19.422Z,8.60
2017-11-07T17:39:47.545Z,8.60
2017-11-07T17:42:15.817Z,8.60
2017-11-07T17:44:44.199Z,8.50
2017-11-07T17:47:12.341Z,8.60
2017-11-07T17:49:41.212Z,8.70
2017-11-07T17:52:09.357Z,8.70
2017-11-07T17:54:37.485Z,8.70
2017-11-07T17:57:05.646Z,8.60
2017-11-07T17:59:34.539Z,8.60
2017-11-07T18:02:03.478Z,8.60
2017-11-07T18:04:31.594Z,8.60
2017-11-07T18:07:00.502Z,8.60
2017-11-07T18:09:29.384Z,8.60
2017-11-07T18:11:58.280Z,8.70
2017-11-07T18:14:27.174Z,8.60
2017-11-07T18:16:56.074Z,8.60
2017-11-07T18:19:24.206Z,8.60
2017-11-07T18:21:52.425Z,8.60
2017-11-07T18:24:20.542Z,8.60
2017-11-07T18:26:48.672Z,8.70
2017-11-07T18:29:16.808Z,8.60
2017-11-07T18:31:44.953Z,8.60
2017-11-07T18:34:13.071Z,8.60
2017-11-07T18:36:41.976Z,8.60
2017-11-07T18:39:10.102Z,8.60
2017-11-07T18:41:38.238Z,8.60
2017-11-07T18:44:06.350Z,8.60
2017-11-07T18:46:34.504Z,8.60
2017-11-07T18:49:02.626Z,8.60
2017-11-07T18:51:31.577Z,8.70
2017-11-07T18:53:59.720Z,8.70
2017-11-07T18:56:27.897Z,8.90
2017-11-07T18:58:56.046Z,9.00
2017-11-07T19:01:24.980Z,8.80
2017-11-07T19:03:53.101Z,8.80
2017-11-07T19:06:22.015Z,8.80
2017-11-07T19:08:50.266Z,8.80
2017-11-07T19:11:19.221Z,8.80
2017-11-07T19:13:47.354Z,8.80
2017-11-07T19:16:15.499Z,9.00
2017-11-07T19:18:43.657Z,9.10
2017-11-07T19:21:11.775Z,9.10
2017-11-07T19:23:39.923Z,9.10
2017-11-07T19:26:08.038Z,9.10
2017-11-07T19:28:36.190Z,9.10
2017-11-07T19:31:04.314Z,9.10
2017-11-07T19:33:32.459Z,9.10
2017-11-07T19:36:00.589Z,9.10
2017-11-07T19:38:28.742Z,9.10
2017-11-07T19:40:56.896Z,9.10
2017-11-07T19:43:25.256Z,9.00
2017-11-07T19:45:54.209Z,9.00
2017-11-07T19:48:22.354Z,8.90
2017-11-07T19:50:50.487Z,9.00
2017-11-07T19:53:18.620Z,9.10
2017-11-07T19:55:46.735Z,9.00
2017-11-07T19:58:14.883Z,9.00
2017-11-07T20:00:43.780Z,8.90
2017-11-07T20:03:12.662Z,9.00
2017-11-07T20:05:41.566Z,9.00
2017-11-07T20:08:09.698Z,9.00
2017-11-07T20:10:37.848Z,9.00
2017-11-07T20:13:05.992Z,9.00
2017-11-07T20:15:34.124Z,8.90
2017-11-07T20:18:02.253Z,8.90
2017-11-07T20:20:30.386Z,8.90
2017-11-07T20:22:59.276Z,8.90
2017-11-07T20:25:27.410Z,8.90
2017-11-07T20:27:55.534Z,8.90
2017-11-07T20:30:24.438Z,8.90
2017-11-07T20:32:52.562Z,8.80
2017-11-07T20:35:20.710Z,8.90
2017-11-07T20:37:48.834Z,8.90
2017-11-07T20:40:16.989Z,9.00
2017-11-07T20:42:45.117Z,9.00
2017-11-07T20:45:13.262Z,8.90
2017-11-07T20:47:42.158Z,8.90
2017-11-07T20:50:11.067Z,8.90
2017-11-07T20:52:39.193Z,9.00
2017-11-07T20:55:07.358Z,8.80
2017-11-07T20:57:35.490Z,8.80
2017-11-07T21:00:03.761Z,8.80
2017-11-07T21:02:37.622Z,8.80
2017-11-07T21:05:05.809Z,8.80
2017-11-07T21:07:33.930Z,8.80
2017-11-07T21:10:02.089Z,8.80
2017-11-07T21:12:30.231Z,8.80
2017-11-07T21:14:58.331Z,8.80
2017-11-07T21:17:26.481Z,8.70
2017-11-07T21:19:54.602Z,8.70
2017-11-07T21:22:22.737Z,8.70
2017-11-07T21:24:51.620Z,8.80
2017-11-07T21:27:20.533Z,8.80
2017-11-07T21:29:48.643Z,8.80
2017-11-07T21:32:16.782Z,8.90
2017-11-07T21:34:46.677Z,9.00
2017-11-07T21:37:15.583Z,9.10
2017-11-07T21:39:43.723Z,9.10
2017-11-07T21:42:11.844Z,9.10
2017-11-07T21:44:40.802Z,8.90
2017-11-07T21:47:09.711Z,8.80
2017-11-07T21:49:37.854Z,8.80
2017-11-07T21:52:06.001Z,8.70
2017-11-07T21:54:34.125Z,8.60
2017-11-07T21:57:03.020Z,8.70
2017-11-07T21:59:31.147Z,8.70
2017-11-07T22:01:59.282Z,8.70
2017-11-07T22:04:28.316Z,8.70
2017-11-07T22:06:56.456Z,8.70
2017-11-07T22:09:24.575Z,8.80
2017-11-07T22:11:54.510Z,8.70
2017-11-07T22:14:23.398Z,8.70
2017-11-07T22:16:54.126Z,8.70
2017-11-07T22:19:22.232Z,8.70
2017-11-07T22:21:50.339Z,8.70
2017-11-07T22:24:18.492Z,8.80
2017-11-07T22:26:46.601Z,8.70
2017-11-07T22:29:14.749Z,8.60
2017-11-07T22:31:42.885Z,8.60
2017-11-07T22:34:11.030Z,8.70
2017-11-07T22:36:39.168Z,8.70
2017-11-07T22:39:07.313Z,8.70
2017-11-07T22:41:35.441Z,8.70
2017-11-07T22:44:03.597Z,8.70
2017-11-07T22:46:31.715Z,8.70
2017-11-07T22:49:00.614Z,8.80
2017-11-07T22:51:28.733Z,8.80
2017-11-07T22:53:56.877Z,8.80
2017-11-07T22:56:24.983Z,8.70
2017-11-07T22:58:53.123Z,8.50
2017-11-07T23:01:21.313Z,8.60
2017-11-07T23:03:49.447Z,8.60
2017-11-07T23:06:18.333Z,8.70
2017-11-07T23:08:47.229Z,8.70
2017-11-07T23:11:16.110Z,8.70
2017-11-07T23:13:46.812Z,8.70
2017-11-07T23:16:14.937Z,8.70
2017-11-07T23:18:43.093Z,8.60
2017-11-07T23:21:11.977Z,8.60
2017-11-07T23:23:40.100Z,8.60
2017-11-07T23:26:09.889Z,8.70
2017-11-07T23:28:38.770Z,8.60
2017-11-07T23:31:07.686Z,8.70
2017-11-07T23:33:35.813Z,8.70
2017-11-07T23:36:04.035Z,8.60
2017-11-07T23:38:32.162Z,8.70
2017-11-07T23:41:00.302Z,8.70
2017-11-07T23:43:28.425Z,8.60
2017-11-07T23:45:57.338Z,8.50
2017-11-07T23:48:25.441Z,8.50
2017-11-07T23:50:53.594Z,8.50
2017-11-07T23:53:21.714Z,8.60
2017-11-07T23:55:49.860Z,8.60
2017-11-07T23:58:17.978Z,8.60
